sensor_id;sensor_type;location;lat;lon;timestamp;temperature;humidity
12887;DHT22;6511;49.746;6.094;2023-04-01T00:01:31;9.00;99.90
12887;DHT22;6511;49.746;6.094;2023-04-01T00:03:57;9.00;99.90
12887;DHT22;6511;49.746;6.094;2023-04-01T00:06:22;9.00;99.90
12887;DHT22;6511;49.746;6.094;2023-04-01T00:08:48;9.00;99.90
12887;DHT22;6511;49.746;6.094;2023-04-01T00:11:14;9.00;99.90
12887;DHT22;6511;49.746;6.094;2023-04-01T00:13:40;9.00;99.90
12887;DHT22;6511;49.746;6.094;2023-04-01T00:16:06;9.00;99.90
12887;DHT22;6511;49.746;6.094;2023-04-01T00:18:31;9.00;99.90
12887;DHT22;6511;49.746;6.094;2023-04-01T00:20:57;9.00;99.90
12887;DHT22;6511;49.746;6.094;2023-04-01T00:23:22;9.00;99.90
12887;DHT22;6511;49.746;6.094;2023-04-01T00:25:48;9.10;99.90
12887;DHT22;6511;49.746;6.094;2023-04-01T00:28:16;9.10;99.90
12887;DHT22;6511;49.746;6.094;2023-04-01T00:30:41;9.10;99.90
12887;DHT22;6511;49.746;6.094;2023-04-01T00:33:07;9.10;99.90
12887;DHT22;6511;49.746;6.094;2023-04-01T00:35:32;9.00;99.90
12887;DHT22;6511;49.746;6.094;2023-04-01T00:37:58;9.00;99.90
12887;DHT22;6511;49.746;6.094;2023-04-01T00:40:28;9.00;99.90
12887;DHT22;6511;49.746;6.094;2023-04-01T00:42:54;9.00;99.90
12887;DHT22;6511;49.746;6.094;2023-04-01T00:45:27;9.00;99.90
12887;DHT22;6511;49.746;6.094;2023-04-01T00:47:53;9.00;99.90
12887;DHT22;6511;49.746;6.094;2023-04-01T00:50:19;9.00;99.90
12887;DHT22;6511;49.746;6.094;2023-04-01T00:52:45;9.00;99.90
12887;DHT22;6511;49.746;6.094;2023-04-01T00:55:11;9.00;99.90
12887;DHT22;6511;49.746;6.094;2023-04-01T00:57:39;9.00;99.90
12887;DHT22;6511;49.746;6.094;2023-04-01T01:00:08;9.00;99.90
12887;DHT22;6511;49.746;6.094;2023-04-01T01:02:34;9.00;99.90
12887;DHT22;6511;49.746;6.094;2023-04-01T01:05:00;8.90;99.90
12887;DHT22;6511;49.746;6.094;2023-04-01T01:07:35;8.90;99.90
12887;DHT22;6511;49.746;6.094;2023-04-01T01:27:35;8.40;99.90
12887;DHT22;6511;49.746;6.094;2023-04-01T01:37:28;8.30;99.90
12887;DHT22;6511;49.746;6.094;2023-04-01T01:39:56;8.30;99.90
12887;DHT22;6511;49.746;6.094;2023-04-01T01:42:22;8.20;99.90
12887;DHT22;6511;49.746;6.094;2023-04-01T01:44:49;8.20;99.90
12887;DHT22;6511;49.746;6.094;2023-04-01T01:47:15;8.30;99.90
12887;DHT22;6511;49.746;6.094;2023-04-01T01:49:41;8.20;99.90
12887;DHT22;6511;49.746;6.094;2023-04-01T01:52:08;8.20;99.90
12887;DHT22;6511;49.746;6.094;2023-04-01T01:54:33;8.20;99.90
12887;DHT22;6511;49.746;6.094;2023-04-01T01:57:06;8.20;99.90
12887;DHT22;6511;49.746;6.094;2023-04-01T01:59:33;8.20;99.90
12887;DHT22;6511;49.746;6.094;2023-04-01T02:02:00;8.20;99.90
12887;DHT22;6511;49.746;6.094;2023-04-01T02:04:32;8.20;99.90
12887;DHT22;6511;49.746;6.094;2023-04-01T02:07:02;8.20;99.90
12887;DHT22;6511;49.746;6.094;2023-04-01T02:09:28;8.20;99.90
12887;DHT22;6511;49.746;6.094;2023-04-01T02:11:56;8.20;99.90
12887;DHT22;6511;49.746;6.094;2023-04-01T02:14:26;8.20;99.90
12887;DHT22;6511;49.746;6.094;2023-04-01T02:16:55;8.20;99.90
12887;DHT22;6511;49.746;6.094;2023-04-01T02:19:22;8.20;99.90
12887;DHT22;6511;49.746;6.094;2023-04-01T02:21:50;8.20;99.90
12887;DHT22;6511;49.746;6.094;2023-04-01T02:24:17;8.10;99.90
12887;DHT22;6511;49.746;6.094;2023-04-01T02:26:43;8.10;99.90
12887;DHT22;6511;49.746;6.094;2023-04-01T02:29:10;8.20;99.90
12887;DHT22;6511;49.746;6.094;2023-04-01T02:31:36;8.20;99.90
12887;DHT22;6511;49.746;6.094;2023-04-01T02:34:02;8.20;99.90
12887;DHT22;6511;49.746;6.094;2023-04-01T02:36:28;8.10;99.90
12887;DHT22;6511;49.746;6.094;2023-04-01T02:38:53;8.10;99.90
12887;DHT22;6511;49.746;6.094;2023-04-01T02:41:21;8.10;99.90
12887;DHT22;6511;49.746;6.094;2023-04-01T02:43:46;8.10;99.90
12887;DHT22;6511;49.746;6.094;2023-04-01T02:46:12;8.00;99.90
12887;DHT22;6511;49.746;6.094;2023-04-01T02:48:37;8.00;99.90
12887;DHT22;6511;49.746;6.094;2023-04-01T02:51:03;8.00;99.90
12887;DHT22;6511;49.746;6.094;2023-04-01T02:53:29;8.00;99.90
12887;DHT22;6511;49.746;6.094;2023-04-01T02:55:54;8.00;99.90
12887;DHT22;6511;49.746;6.094;2023-04-01T02:58:21;8.00;99.90
12887;DHT22;6511;49.746;6.094;2023-04-01T03:00:46;8.00;99.90
12887;DHT22;6511;49.746;6.094;2023-04-01T03:03:12;8.00;99.90
12887;DHT22;6511;49.746;6.094;2023-04-01T03:05:38;8.00;99.90
12887;DHT22;6511;49.746;6.094;2023-04-01T03:08:04;8.00;99.90
12887;DHT22;6511;49.746;6.094;2023-04-01T03:10:29;7.90;99.90
12887;DHT22;6511;49.746;6.094;2023-04-01T03:12:55;7.90;99.90
12887;DHT22;6511;49.746;6.094;2023-04-01T03:15:20;7.90;99.90
12887;DHT22;6511;49.746;6.094;2023-04-01T03:17:46;7.90;99.90
12887;DHT22;6511;49.746;6.094;2023-04-01T03:20:12;7.90;99.90
12887;DHT22;6511;49.746;6.094;2023-04-01T03:22:38;7.90;99.90
12887;DHT22;6511;49.746;6.094;2023-04-01T03:25:04;7.90;99.90
12887;DHT22;6511;49.746;6.094;2023-04-01T03:27:30;7.90;99.90
12887;DHT22;6511;49.746;6.094;2023-04-01T03:29:55;7.80;99.90
12887;DHT22;6511;49.746;6.094;2023-04-01T03:32:21;7.80;99.90
12887;DHT22;6511;49.746;6.094;2023-04-01T03:34:46;7.80;99.90
12887;DHT22;6511;49.746;6.094;2023-04-01T03:37:11;7.90;99.90
12887;DHT22;6511;49.746;6.094;2023-04-01T03:39:37;7.90;99.90
12887;DHT22;6511;49.746;6.094;2023-04-01T03:42:03;7.80;99.90
12887;DHT22;6511;49.746;6.094;2023-04-01T03:44:32;7.80;99.90
12887;DHT22;6511;49.746;6.094;2023-04-01T03:46:57;7.90;99.90
12887;DHT22;6511;49.746;6.094;2023-04-01T03:49:23;7.80;99.90
12887;DHT22;6511;49.746;6.094;2023-04-01T03:51:48;7.80;99.90
12887;DHT22;6511;49.746;6.094;2023-04-01T03:54:14;7.80;99.90
12887;DHT22;6511;49.746;6.094;2023-04-01T03:56:39;7.80;99.90
12887;DHT22;6511;49.746;6.094;2023-04-01T03:59:07;7.80;99.90
12887;DHT22;6511;49.746;6.094;2023-04-01T04:01:33;7.80;99.90
12887;DHT22;6511;49.746;6.094;2023-04-01T04:03:59;7.80;99.90
12887;DHT22;6511;49.746;6.094;2023-04-01T04:06:25;7.80;99.90
12887;DHT22;6511;49.746;6.094;2023-04-01T04:08:51;7.80;99.90
12887;DHT22;6511;49.746;6.094;2023-04-01T04:11:17;7.80;99.90
12887;DHT22;6511;49.746;6.094;2023-04-01T04:13:43;7.90;99.90
12887;DHT22;6511;49.746;6.094;2023-04-01T04:16:09;7.90;99.90
12887;DHT22;6511;49.746;6.094;2023-04-01T04:18:35;7.90;99.90
12887;DHT22;6511;49.746;6.094;2023-04-01T04:21:01;7.90;99.90
12887;DHT22;6511;49.746;6.094;2023-04-01T04:23:26;7.90;99.90
12887;DHT22;6511;49.746;6.094;2023-04-01T04:25:57;7.90;99.90
12887;DHT22;6511;49.746;6.094;2023-04-01T04:28:24;7.90;99.90
12887;DHT22;6511;49.746;6.094;2023-04-01T04:30:49;7.90;99.90
12887;DHT22;6511;49.746;6.094;2023-04-01T04:33:15;7.90;99.90
12887;DHT22;6511;49.746;6.094;2023-04-01T04:35:40;7.90;99.90
12887;DHT22;6511;49.746;6.094;2023-04-01T04:38:06;7.90;99.90
12887;DHT22;6511;49.746;6.094;2023-04-01T04:40:31;7.90;99.90
12887;DHT22;6511;49.746;6.094;2023-04-01T04:42:57;7.90;99.90
12887;DHT22;6511;49.746;6.094;2023-04-01T04:45:22;7.90;99.90
12887;DHT22;6511;49.746;6.094;2023-04-01T04:47:48;7.90;99.90
12887;DHT22;6511;49.746;6.094;2023-04-01T04:50:13;7.90;99.90
12887;DHT22;6511;49.746;6.094;2023-04-01T04:52:39;7.90;99.90
12887;DHT22;6511;49.746;6.094;2023-04-01T04:55:05;7.90;99.90
12887;DHT22;6511;49.746;6.094;2023-04-01T04:57:30;7.90;99.90
12887;DHT22;6511;49.746;6.094;2023-04-01T04:59:56;7.90;99.90
12887;DHT22;6511;49.746;6.094;2023-04-01T05:02:21;7.90;99.90
12887;DHT22;6511;49.746;6.094;2023-04-01T05:04:47;7.90;99.90
12887;DHT22;6511;49.746;6.094;2023-04-01T05:07:12;7.90;99.90
12887;DHT22;6511;49.746;6.094;2023-04-01T05:09:39;7.90;99.90
12887;DHT22;6511;49.746;6.094;2023-04-01T05:12:04;7.90;99.90
12887;DHT22;6511;49.746;6.094;2023-04-01T05:14:30;8.00;99.90
12887;DHT22;6511;49.746;6.094;2023-04-01T05:16:55;7.90;99.90
12887;DHT22;6511;49.746;6.094;2023-04-01T05:19:21;7.90;99.90
12887;DHT22;6511;49.746;6.094;2023-04-01T05:21:46;7.90;99.90
12887;DHT22;6511;49.746;6.094;2023-04-01T05:24:12;8.00;99.90
12887;DHT22;6511;49.746;6.094;2023-04-01T05:26:37;8.00;99.90
12887;DHT22;6511;49.746;6.094;2023-04-01T05:29:03;8.00;99.90
12887;DHT22;6511;49.746;6.094;2023-04-01T05:31:29;8.00;99.90
12887;DHT22;6511;49.746;6.094;2023-04-01T05:33:55;8.00;99.90
12887;DHT22;6511;49.746;6.094;2023-04-01T05:36:20;8.00;99.90
12887;DHT22;6511;49.746;6.094;2023-04-01T05:38:46;8.00;99.90
12887;DHT22;6511;49.746;6.094;2023-04-01T05:41:12;8.00;99.90
12887;DHT22;6511;49.746;6.094;2023-04-01T05:43:38;8.00;99.90
12887;DHT22;6511;49.746;6.094;2023-04-01T05:46:04;8.00;99.90
12887;DHT22;6511;49.746;6.094;2023-04-01T05:48:29;8.10;99.90
12887;DHT22;6511;49.746;6.094;2023-04-01T05:50:55;8.10;99.90
12887;DHT22;6511;49.746;6.094;2023-04-01T05:53:20;8.10;99.90
12887;DHT22;6511;49.746;6.094;2023-04-01T05:55:46;8.20;99.90
12887;DHT22;6511;49.746;6.094;2023-04-01T05:58:11;8.20;99.90
12887;DHT22;6511;49.746;6.094;2023-04-01T06:00:37;8.20;99.90
12887;DHT22;6511;49.746;6.094;2023-04-01T06:03:02;8.20;99.90
12887;DHT22;6511;49.746;6.094;2023-04-01T06:05:28;8.20;99.90
12887;DHT22;6511;49.746;6.094;2023-04-01T06:07:55;8.20;99.90
12887;DHT22;6511;49.746;6.094;2023-04-01T06:10:22;8.20;99.90
12887;DHT22;6511;49.746;6.094;2023-04-01T06:12:56;8.20;99.90
12887;DHT22;6511;49.746;6.094;2023-04-01T06:21:41;8.30;99.90
12887;DHT22;6511;49.746;6.094;2023-04-01T06:23:37;8.30;99.90
12887;DHT22;6511;49.746;6.094;2023-04-01T06:46:58;8.70;99.90
12887;DHT22;6511;49.746;6.094;2023-04-01T06:49:29;8.70;99.90
12887;DHT22;6511;49.746;6.094;2023-04-01T06:54:44;8.70;99.90
12887;DHT22;6511;49.746;6.094;2023-04-01T06:57:28;8.70;99.90
12887;DHT22;6511;49.746;6.094;2023-04-01T06:59:55;8.80;99.90
12887;DHT22;6511;49.746;6.094;2023-04-01T07:04:55;8.80;99.90
12887;DHT22;6511;49.746;6.094;2023-04-01T07:07:34;8.80;99.90
12887;DHT22;6511;49.746;6.094;2023-04-01T07:10:02;8.80;99.90
12887;DHT22;6511;49.746;6.094;2023-04-01T07:12:32;8.90;99.90
12887;DHT22;6511;49.746;6.094;2023-04-01T07:15:33;8.90;99.90
12887;DHT22;6511;49.746;6.094;2023-04-01T07:17:52;8.90;99.90
12887;DHT22;6511;49.746;6.094;2023-04-01T07:20:26;8.90;99.90
12887;DHT22;6511;49.746;6.094;2023-04-01T07:22:57;8.90;99.90
12887;DHT22;6511;49.746;6.094;2023-04-01T07:25:46;8.70;99.90
12887;DHT22;6511;49.746;6.094;2023-04-01T07:28:13;8.70;99.90
12887;DHT22;6511;49.746;6.094;2023-04-01T07:33:34;8.50;99.90
12887;DHT22;6511;49.746;6.094;2023-04-01T07:36:15;8.50;99.90
12887;DHT22;6511;49.746;6.094;2023-04-01T07:46:55;8.50;99.90
12887;DHT22;6511;49.746;6.094;2023-04-01T07:54:57;8.60;99.90
12887;DHT22;6511;49.746;6.094;2023-04-01T08:05:17;8.50;99.90
12887;DHT22;6511;49.746;6.094;2023-04-01T08:10:21;8.50;99.90
12887;DHT22;6511;49.746;6.094;2023-04-01T08:15:27;8.50;99.90
12887;DHT22;6511;49.746;6.094;2023-04-01T08:18:09;8.50;99.90
12887;DHT22;6511;49.746;6.094;2023-04-01T08:23:18;8.70;99.90
12887;DHT22;6511;49.746;6.094;2023-04-01T08:25:47;8.90;99.90
12887;DHT22;6511;49.746;6.094;2023-04-01T08:28:20;8.90;99.90
12887;DHT22;6511;49.746;6.094;2023-04-01T08:30:53;9.00;99.90
12887;DHT22;6511;49.746;6.094;2023-04-01T08:33:24;8.90;99.90
12887;DHT22;6511;49.746;6.094;2023-04-01T08:38:59;9.00;99.90
12887;DHT22;6511;49.746;6.094;2023-04-01T08:49:01;9.10;99.90
12887;DHT22;6511;49.746;6.094;2023-04-01T09:12:28;9.80;99.90
12887;DHT22;6511;49.746;6.094;2023-04-01T09:22:30;10.00;99.90
12887;DHT22;6511;49.746;6.094;2023-04-01T09:25:15;9.80;99.90
12887;DHT22;6511;49.746;6.094;2023-04-01T09:27:55;10.00;99.90
12887;DHT22;6511;49.746;6.094;2023-04-01T09:32:57;10.00;99.90
12887;DHT22;6511;49.746;6.094;2023-04-01T09:54:04;9.90;99.90
12887;DHT22;6511;49.746;6.094;2023-04-01T09:56:59;9.90;99.90
12887;DHT22;6511;49.746;6.094;2023-04-01T10:15:08;10.60;99.90
12887;DHT22;6511;49.746;6.094;2023-04-01T10:18:05;10.60;99.90
12887;DHT22;6511;49.746;6.094;2023-04-01T10:23:25;11.10;99.90
12887;DHT22;6511;49.746;6.094;2023-04-01T10:33:38;10.80;99.90
12887;DHT22;6511;49.746;6.094;2023-04-01T10:46:41;10.90;99.90
12887;DHT22;6511;49.746;6.094;2023-04-01T10:49:21;11.00;99.90
12887;DHT22;6511;49.746;6.094;2023-04-01T11:06:06;10.90;99.90
12887;DHT22;6511;49.746;6.094;2023-04-01T11:24:12;10.40;99.90
12887;DHT22;6511;49.746;6.094;2023-04-01T11:26:51;10.50;99.90
12887;DHT22;6511;49.746;6.094;2023-04-01T11:32:02;10.30;99.90
12887;DHT22;6511;49.746;6.094;2023-04-01T11:34:37;10.20;99.90
12887;DHT22;6511;49.746;6.094;2023-04-01T11:39:40;10.60;99.90
12887;DHT22;6511;49.746;6.094;2023-04-01T11:42:24;10.70;99.90
12887;DHT22;6511;49.746;6.094;2023-04-01T11:47:46;10.50;99.90
12887;DHT22;6511;49.746;6.094;2023-04-01T12:08:52;11.60;99.90
12887;DHT22;6511;49.746;6.094;2023-04-01T12:19:27;12.00;99.90
12887;DHT22;6511;49.746;6.094;2023-04-01T12:32:50;12.10;99.90
12887;DHT22;6511;49.746;6.094;2023-04-01T13:01:57;11.40;99.90
12887;DHT22;6511;49.746;6.094;2023-04-01T13:19:42;11.60;99.90
12887;DHT22;6511;49.746;6.094;2023-04-01T13:22:14;11.40;99.90
12887;DHT22;6511;49.746;6.094;2023-04-01T13:30:35;11.70;99.90
12887;DHT22;6511;49.746;6.094;2023-04-01T13:33:17;11.50;99.90
12887;DHT22;6511;49.746;6.094;2023-04-01T13:56:07;10.60;99.90
12887;DHT22;6511;49.746;6.094;2023-04-01T14:12:10;10.40;99.90
12887;DHT22;6511;49.746;6.094;2023-04-01T14:29:58;11.40;99.90
12887;DHT22;6511;49.746;6.094;2023-04-01T14:40:34;11.60;99.90
12887;DHT22;6511;49.746;6.094;2023-04-01T14:50:47;11.20;99.90
12887;DHT22;6511;49.746;6.094;2023-04-01T14:58:14;11.00;99.90
12887;DHT22;6511;49.746;6.094;2023-04-01T15:08:53;11.00;99.90
12887;DHT22;6511;49.746;6.094;2023-04-01T15:14:15;10.90;99.90
12887;DHT22;6511;49.746;6.094;2023-04-01T15:16:49;10.90;99.90
12887;DHT22;6511;49.746;6.094;2023-04-01T15:19:28;10.60;99.90
12887;DHT22;6511;49.746;6.094;2023-04-01T15:24:42;10.20;99.90
12887;DHT22;6511;49.746;6.094;2023-04-01T15:42:47;10.50;99.90
12887;DHT22;6511;49.746;6.094;2023-04-01T15:47:58;10.40;99.90
12887;DHT22;6511;49.746;6.094;2023-04-01T15:54:00;10.30;99.90
12887;DHT22;6511;49.746;6.094;2023-04-01T16:01:13;10.10;99.90
12887;DHT22;6511;49.746;6.094;2023-04-01T16:14:23;9.80;99.90
12887;DHT22;6511;49.746;6.094;2023-04-01T16:19:26;9.90;99.90
12887;DHT22;6511;49.746;6.094;2023-04-01T16:27:04;9.90;99.90
12887;DHT22;6511;49.746;6.094;2023-04-01T16:32:15;10.00;99.90
12887;DHT22;6511;49.746;6.094;2023-04-01T16:34:56;9.90;99.90
12887;DHT22;6511;49.746;6.094;2023-04-01T16:37:32;10.00;99.90
12887;DHT22;6511;49.746;6.094;2023-04-01T16:40:13;9.90;99.90
12887;DHT22;6511;49.746;6.094;2023-04-01T16:42:49;9.90;99.90
12887;DHT22;6511;49.746;6.094;2023-04-01T16:45:19;9.90;99.90
12887;DHT22;6511;49.746;6.094;2023-04-01T16:47:49;9.80;99.90
12887;DHT22;6511;49.746;6.094;2023-04-01T16:55:19;9.60;99.90
12887;DHT22;6511;49.746;6.094;2023-04-01T16:57:50;9.50;99.90
12887;DHT22;6511;49.746;6.094;2023-04-01T17:02:47;9.50;99.90
12887;DHT22;6511;49.746;6.094;2023-04-01T17:05:16;9.40;99.90
12887;DHT22;6511;49.746;6.094;2023-04-01T17:12:50;9.50;99.90
12887;DHT22;6511;49.746;6.094;2023-04-01T17:30:40;9.30;99.90
12887;DHT22;6511;49.746;6.094;2023-04-01T17:35:43;9.30;99.90
12887;DHT22;6511;49.746;6.094;2023-04-01T17:41:09;9.30;99.90
12887;DHT22;6511;49.746;6.094;2023-04-01T18:04:15;9.20;99.90
12887;DHT22;6511;49.746;6.094;2023-04-01T18:09:51;9.20;99.90
12887;DHT22;6511;49.746;6.094;2023-04-01T18:27:33;8.90;99.90
12887;DHT22;6511;49.746;6.094;2023-04-01T18:30:07;8.90;99.90
12887;DHT22;6511;49.746;6.094;2023-04-01T18:32:35;8.80;99.90
12887;DHT22;6511;49.746;6.094;2023-04-01T18:40:42;8.70;99.90
12887;DHT22;6511;49.746;6.094;2023-04-01T18:48:40;8.60;99.90
12887;DHT22;6511;49.746;6.094;2023-04-01T18:51:17;8.50;99.90
12887;DHT22;6511;49.746;6.094;2023-04-01T18:53:48;8.50;99.90
12887;DHT22;6511;49.746;6.094;2023-04-01T18:56:22;8.50;99.90
12887;DHT22;6511;49.746;6.094;2023-04-01T19:04:45;8.40;99.90
12887;DHT22;6511;49.746;6.094;2023-04-01T19:09:53;8.40;99.90
12887;DHT22;6511;49.746;6.094;2023-04-01T19:12:37;8.30;99.90
12887;DHT22;6511;49.746;6.094;2023-04-01T19:28:46;8.40;99.90
12887;DHT22;6511;49.746;6.094;2023-04-01T19:30:51;8.30;99.90
12887;DHT22;6511;49.746;6.094;2023-04-01T19:33:40;8.30;99.90
12887;DHT22;6511;49.746;6.094;2023-04-01T19:39:38;8.20;99.90
12887;DHT22;6511;49.746;6.094;2023-04-01T19:52:47;7.90;99.90
12887;DHT22;6511;49.746;6.094;2023-04-01T19:55:37;7.90;99.90
12887;DHT22;6511;49.746;6.094;2023-04-01T20:00:52;7.90;99.90
12887;DHT22;6511;49.746;6.094;2023-04-01T20:03:42;7.90;99.90
12887;DHT22;6511;49.746;6.094;2023-04-01T20:06:19;7.90;99.90
12887;DHT22;6511;49.746;6.094;2023-04-01T20:09:26;8.00;99.90
12887;DHT22;6511;49.746;6.094;2023-04-01T20:17:19;8.10;99.90
12887;DHT22;6511;49.746;6.094;2023-04-01T20:23:05;8.10;99.90
12887;DHT22;6511;49.746;6.094;2023-04-01T20:36:09;8.20;99.90
12887;DHT22;6511;49.746;6.094;2023-04-01T21:01:16;8.20;99.90
12887;DHT22;6511;49.746;6.094;2023-04-01T21:07:11;8.10;99.90
12887;DHT22;6511;49.746;6.094;2023-04-01T21:34:17;8.00;99.90
12887;DHT22;6511;49.746;6.094;2023-04-01T21:45:49;8.00;99.90
12887;DHT22;6511;49.746;6.094;2023-04-01T21:54:06;7.90;99.90
12887;DHT22;6511;49.746;6.094;2023-04-01T22:00:11;7.90;99.90
12887;DHT22;6511;49.746;6.094;2023-04-01T22:16:54;7.80;99.90
12887;DHT22;6511;49.746;6.094;2023-04-01T22:24:40;7.80;99.90
12887;DHT22;6511;49.746;6.094;2023-04-01T22:32:47;7.70;99.90
12887;DHT22;6511;49.746;6.094;2023-04-01T22:40:39;7.70;99.90
12887;DHT22;6511;49.746;6.094;2023-04-01T22:46:08;7.60;99.90
12887;DHT22;6511;49.746;6.094;2023-04-01T22:48:47;7.60;99.90
12887;DHT22;6511;49.746;6.094;2023-04-01T22:56:53;7.50;99.90
12887;DHT22;6511;49.746;6.094;2023-04-01T22:59:37;7.50;99.90
12887;DHT22;6511;49.746;6.094;2023-04-01T23:02:25;7.50;99.90
12887;DHT22;6511;49.746;6.094;2023-04-01T23:04:55;7.40;99.90
12887;DHT22;6511;49.746;6.094;2023-04-01T23:09:56;7.40;99.90
12887;DHT22;6511;49.746;6.094;2023-04-01T23:12:25;7.50;99.90
12887;DHT22;6511;49.746;6.094;2023-04-01T23:14:52;7.50;99.90
12887;DHT22;6511;49.746;6.094;2023-04-01T23:23:29;7.50;99.90
12887;DHT22;6511;49.746;6.094;2023-04-01T23:28:56;7.50;99.90
12887;DHT22;6511;49.746;6.094;2023-04-01T23:36:46;7.40;99.90
12887;DHT22;6511;49.746;6.094;2023-04-01T23:41:49;7.30;99.90
12887;DHT22;6511;49.746;6.094;2023-04-01T23:44:16;7.30;99.90
12887;DHT22;6511;49.746;6.094;2023-04-01T23:46:44;7.30;99.90
12887;DHT22;6511;49.746;6.094;2023-04-01T23:49:21;7.40;99.90
12887;DHT22;6511;49.746;6.094;2023-04-01T23:51:58;7.30;99.90
12887;DHT22;6511;49.746;6.094;2023-04-01T23:54:29;7.40;99.90
12887;DHT22;6511;49.746;6.094;2023-04-01T23:56:56;7.40;99.90
12887;DHT22;6511;49.746;6.094;2023-04-01T23:59:34;7.40;99.90
